Time;durP1;ratioP1;P1;durP2;ratioP2;P2;SDS_P1;SDS_P2;PMS_P1;PMS_P2;Temp;Humidity;BMP_temperature;BMP_pressure;BME280_temperature;BME280_humidity;BME280_pressure;Samples;Min_cycle;Max_cycle;Signal;HPM_P1;HPM_P2
2022/11/09 00:01:24;;;;;;;5.22;1.92;;;11.60;99.90;;;;;;5031283;28;20638;-65
2022/11/09 00:03:55;;;;;;;5.97;1.77;;;11.60;99.90;;;;;;5032071;28;20041;-65
2022/11/09 00:06:23;;;;;;;3.05;1.83;;;11.60;99.90;;;;;;5030414;28;20132;-64
2022/11/09 00:08:50;;;;;;;4.32;2.00;;;11.60;99.90;;;;;;5013768;28;20053;-66
2022/11/09 00:11:17;;;;;;;4.30;1.88;;;11.60;99.90;;;;;;5013230;28;20378;-65
2022/11/09 00:13:45;;;;;;;6.05;2.13;;;11.60;99.90;;;;;;5013951;28;20111;-65
2022/11/09 00:16:15;;;;;;;5.30;2.53;;;11.60;99.90;;;;;;5014384;28;20057;-64
2022/11/09 00:18:46;;;;;;;3.78;2.30;;;11.60;99.90;;;;;;5011117;28;20054;-66
2022/11/09 00:21:15;;;;;;;5.75;2.60;;;11.60;99.90;;;;;;5010584;28;20479;-65
2022/11/09 00:23:42;;;;;;;7.82;2.92;;;11.60;99.90;;;;;;5011326;28;20053;-66
2022/11/09 00:26:11;;;;;;;7.95;2.67;;;11.60;99.90;;;;;;5008938;28;20596;-65
2022/11/09 00:28:38;;;;;;;4.15;2.50;;;11.60;99.90;;;;;;5010399;28;20513;-65
2022/11/09 00:31:07;;;;;;;6.78;2.55;;;11.60;99.90;;;;;;5011188;28;20065;-66
2022/11/09 00:33:35;;;;;;;3.45;2.30;;;11.60;99.90;;;;;;5011247;28;20053;-65
2022/11/09 00:36:09;;;;;;;4.90;2.40;;;11.70;99.90;;;;;;5010231;28;20053;-66
2022/11/09 00:38:37;;;;;;;7.95;2.58;;;11.70;99.90;;;;;;5010936;28;20049;-67
2022/11/09 00:41:04;;;;;;;5.15;1.92;;;11.70;99.90;;;;;;5010085;28;20046;-67
2022/11/09 00:43:32;;;;;;;6.07;2.38;;;11.70;99.90;;;;;;5010555;28;20104;-66
2022/11/09 00:45:59;;;;;;;6.57;2.50;;;11.70;99.90;;;;;;5010879;28;20062;-66
2022/11/09 00:48:26;;;;;;;4.75;2.20;;;11.70;99.90;;;;;;5012184;28;20057;-66
2022/11/09 00:50:56;;;;;;;5.57;2.40;;;11.80;99.90;;;;;;5010359;28;20061;-65
2022/11/09 00:53:23;;;;;;;6.97;2.60;;;11.80;99.90;;;;;;5011068;28;20058;-65
2022/11/09 00:55:54;;;;;;;4.57;2.50;;;11.80;99.90;;;;;;5008929;28;20052;-65
2022/11/09 00:58:22;;;;;;;5.43;2.88;;;11.80;99.90;;;;;;5011641;28;20456;-65
2022/11/09 01:00:49;;;;;;;8.00;3.33;;;11.80;99.90;;;;;;5011991;28;20113;-66
2022/11/09 01:03:16;;;;;;;4.57;2.95;;;11.80;99.90;;;;;;5014731;28;20145;-66
2022/11/09 01:05:43;;;;;;;6.88;2.92;;;11.80;99.90;;;;;;5012659;28;20049;-66
2022/11/09 01:08:11;;;;;;;4.35;2.83;;;11.90;99.90;;;;;;5012940;28;20509;-65
2022/11/09 01:10:41;;;;;;;6.82;3.22;;;11.90;99.90;;;;;;5013816;28;20099;-65
2022/11/09 01:13:08;;;;;;;9.02;2.95;;;11.90;99.90;;;;;;5015758;28;20085;-65
2022/11/09 01:15:39;;;;;;;6.18;2.70;;;11.90;99.90;;;;;;5014338;28;20096;-65
2022/11/09 01:18:06;;;;;;;6.80;2.92;;;11.90;99.90;;;;;;5013546;28;20057;-65
2022/11/09 01:20:33;;;;;;;4.57;2.60;;;12.00;99.90;;;;;;5015510;28;20041;-66
2022/11/09 01:23:00;;;;;;;7.40;2.78;;;11.90;99.90;;;;;;5014246;28;20476;-66
2022/11/09 01:25:28;;;;;;;7.55;2.80;;;11.90;99.90;;;;;;5014599;28;20502;-66
2022/11/09 01:27:55;;;;;;;5.53;2.90;;;11.90;99.90;;;;;;5015487;28;20049;-66
2022/11/09 01:30:22;;;;;;;5.55;3.20;;;11.90;99.90;;;;;;5015583;28;20396;-66
2022/11/09 01:32:48;;;;;;;8.50;2.97;;;11.90;99.90;;;;;;5014765;28;20080;-66
2022/11/09 01:35:15;;;;;;;7.00;2.78;;;12.00;99.90;;;;;;5013168;28;20489;-66
2022/11/09 01:37:42;;;;;;;9.30;3.15;;;12.00;99.90;;;;;;5014205;28;20049;-66
2022/11/09 01:40:10;;;;;;;9.95;2.85;;;12.10;99.90;;;;;;5010258;28;20109;-65
2022/11/09 01:42:39;;;;;;;6.22;2.55;;;12.10;99.90;;;;;;5013688;28;20764;-66
2022/11/09 01:45:23;;;;;;;6.47;2.70;;;12.10;99.90;;;;;;5014615;28;20112;-66
2022/11/09 01:47:55;;;;;;;5.90;2.88;;;12.20;99.90;;;;;;5011846;28;20140;-65
2022/11/09 01:50:30;;;;;;;4.45;2.67;;;12.30;99.90;;;;;;5013692;28;20049;-65
2022/11/09 01:52:59;;;;;;;7.28;2.78;;;12.20;99.90;;;;;;5013086;28;20096;-65
2022/11/09 01:55:26;;;;;;;8.55;3.20;;;12.20;99.90;;;;;;5013453;28;20054;-65
2022/11/09 01:57:57;;;;;;;7.68;3.30;;;12.20;99.90;;;;;;5015018;28;20050;-66
2022/11/09 02:00:24;;;;;;;7.82;3.47;;;12.10;99.90;;;;;;5013435;28;20045;-65
2022/11/09 02:02:56;;;;;;;8.52;4.00;;;12.10;99.90;;;;;;5011490;28;20061;-65
2022/11/09 02:05:26;;;;;;;12.70;3.90;;;12.10;99.90;;;;;;5012378;28;20449;-65
2022/11/09 02:07:54;;;;;;;10.02;3.10;;;12.10;99.90;;;;;;5014021;28;20046;-65
2022/11/09 02:10:25;;;;;;;9.88;3.80;;;12.30;99.90;;;;;;5013406;28;20386;-65
2022/11/09 02:12:54;;;;;;;9.43;3.55;;;12.00;99.90;;;;;;5011236;28;20057;-66
2022/11/09 02:15:21;;;;;;;7.15;2.70;;;12.00;99.90;;;;;;5012688;28;20050;-65
2022/11/09 02:17:52;;;;;;;6.35;3.08;;;12.00;99.90;;;;;;5012369;28;20108;-65
2022/11/09 02:20:21;;;;;;;9.15;3.08;;;11.90;99.90;;;;;;5013207;28;20049;-65
2022/11/09 02:22:48;;;;;;;6.85;2.92;;;11.90;99.90;;;;;;5012856;28;20045;-67
2022/11/09 02:25:16;;;;;;;5.82;2.65;;;11.80;99.90;;;;;;5013292;28;20120;-65
2022/11/09 02:27:44;;;;;;;6.22;2.67;;;11.70;99.90;;;;;;5012419;28;20104;-66
2022/11/09 02:30:13;;;;;;;8.02;3.05;;;11.70;99.90;;;;;;5014451;28;20379;-65
2022/11/09 02:32:40;;;;;;;10.98;2.92;;;11.60;99.90;;;;;;5010800;28;20049;-65
2022/11/09 02:35:07;;;;;;;7.47;3.00;;;11.60;99.90;;;;;;5012373;28;20092;-65
2022/11/09 02:37:39;;;;;;;10.02;2.80;;;11.60;99.90;;;;;;5010887;28;20050;-66
2022/11/09 02:40:12;;;;;;;8.30;2.55;;;11.50;99.90;;;;;;5013821;28;20108;-64
2022/11/09 02:42:40;;;;;;;11.10;3.40;;;11.50;99.90;;;;;;5013522;28;20668;-65
2022/11/09 02:45:07;;;;;;;11.05;3.38;;;11.50;99.90;;;;;;5012931;28;20049;-65
2022/11/09 02:47:34;;;;;;;10.45;3.10;;;11.50;99.90;;;;;;5012294;28;20062;-65
2022/11/09 02:50:01;;;;;;;7.53;3.20;;;11.50;99.90;;;;;;5012085;28;20100;-65
2022/11/09 02:52:28;;;;;;;9.38;3.15;;;11.40;99.90;;;;;;5012402;28;20112;-64
2022/11/09 02:54:57;;;;;;;8.68;3.00;;;11.40;99.90;;;;;;5014004;28;20049;-65
2022/11/09 02:57:24;;;;;;;9.70;2.88;;;11.40;99.90;;;;;;5012616;28;20569;-64
2022/11/09 02:59:51;;;;;;;8.13;3.00;;;11.40;99.90;;;;;;5011942;28;20050;-65
2022/11/09 03:02:17;;;;;;;8.70;2.70;;;11.30;99.90;;;;;;5011294;28;20513;-65
2022/11/09 03:04:44;;;;;;;8.40;3.17;;;11.40;99.90;;;;;;5012149;28;20053;-66
2022/11/09 03:07:11;;;;;;;9.43;2.83;;;11.30;99.90;;;;;;5010291;28;20061;-65
2022/11/09 03:09:38;;;;;;;6.25;2.55;;;11.30;99.90;;;;;;5013023;28;20081;-66
2022/11/09 03:14:47;;;;;;;9.82;2.95;;;11.20;99.90;;;;;;5012688;28;20049;-66
2022/11/09 03:17:15;;;;;;;6.88;3.08;;;11.30;99.90;;;;;;5011293;28;20057;-64
2022/11/09 03:19:42;;;;;;;12.10;2.92;;;11.30;99.90;;;;;;5012055;28;20052;-65
2022/11/09 03:22:09;;;;;;;11.73;2.75;;;11.30;99.90;;;;;;5013318;28;20046;-65
2022/11/09 03:24:36;;;;;;;7.45;2.72;;;11.30;99.90;;;;;;5011565;28;20564;-65
2022/11/09 03:27:03;;;;;;;6.93;2.90;;;11.30;99.90;;;;;;5013103;28;20498;-65
2022/11/09 03:29:31;;;;;;;7.70;2.70;;;11.40;99.90;;;;;;5013136;28;20469;-65
2022/11/09 03:31:58;;;;;;;11.77;2.67;;;11.40;99.90;;;;;;5011253;28;20053;-65
2022/11/09 03:34:25;;;;;;;11.10;2.78;;;11.30;99.90;;;;;;5011637;28;20069;-65
2022/11/09 03:36:52;;;;;;;11.05;3.17;;;11.30;99.90;;;;;;5012208;28;20425;-65
2022/11/09 03:39:18;;;;;;;9.02;3.00;;;11.30;99.90;;;;;;5012233;28;20445;-65
2022/11/09 03:41:45;;;;;;;6.53;2.50;;;11.40;99.90;;;;;;5012923;28;20567;-65
2022/11/09 03:44:12;;;;;;;7.60;3.00;;;11.40;99.90;;;;;;5011942;28;20466;-65
2022/11/09 03:46:40;;;;;;;6.45;2.72;;;11.30;99.90;;;;;;5010698;28;20116;-65
2022/11/09 03:49:07;;;;;;;5.57;2.25;;;11.30;99.90;;;;;;5009050;28;20100;-65
2022/11/09 03:51:34;;;;;;;7.88;2.72;;;11.30;99.90;;;;;;5011552;28;20453;-64
2022/11/09 03:54:01;;;;;;;10.02;3.05;;;11.30;99.90;;;;;;5009721;28;20057;-64
2022/11/09 03:56:28;;;;;;;7.32;2.63;;;11.40;99.90;;;;;;5012606;28;20383;-65
2022/11/09 03:58:55;;;;;;;8.85;2.35;;;11.40;99.90;;;;;;5009780;28;20046;-64
2022/11/09 04:01:22;;;;;;;9.75;3.22;;;11.30;99.90;;;;;;5011755;28;20046;-65
2022/11/09 04:03:50;;;;;;;7.05;2.92;;;11.30;99.90;;;;;;5012291;28;20116;-64
2022/11/09 04:06:17;;;;;;;10.30;3.00;;;11.40;99.90;;;;;;5010906;28;20490;-64
2022/11/09 04:08:44;;;;;;;12.43;3.10;;;11.30;99.90;;;;;;5010408;28;20056;-65
2022/11/09 04:11:11;;;;;;;8.75;3.75;;;11.30;99.90;;;;;;5011143;28;20057;-65
2022/11/09 04:13:37;;;;;;;8.70;2.50;;;11.30;99.90;;;;;;5010622;28;20049;-65
2022/11/09 04:16:05;;;;;;;7.78;2.20;;;11.40;99.90;;;;;;5011377;28;20053;-64
2022/11/09 04:18:32;;;;;;;10.45;2.67;;;11.30;99.90;;;;;;5011117;28;20062;-66
2022/11/09 04:21:00;;;;;;;7.32;2.33;;;11.30;99.90;;;;;;5010333;28;20120;-65
2022/11/09 04:23:27;;;;;;;11.40;3.13;;;11.30;99.90;;;;;;5010914;28;20194;-65
2022/11/09 04:25:54;;;;;;;10.93;2.92;;;11.30;99.90;;;;;;5012508;28;20050;-65
2022/11/09 04:28:21;;;;;;;10.88;2.80;;;11.30;99.90;;;;;;5011610;28;20494;-67
2022/11/09 04:30:47;;;;;;;10.02;2.70;;;11.20;99.90;;;;;;5011454;28;20050;-65
2022/11/09 04:33:14;;;;;;;7.55;2.70;;;11.30;99.90;;;;;;5011186;28;20560;-65
2022/11/09 04:35:41;;;;;;;10.23;3.03;;;11.30;99.90;;;;;;5008240;28;20053;-65
2022/11/09 04:38:12;;;;;;;12.40;2.45;;;11.30;99.90;;;;;;5012403;28;20050;-66
2022/11/09 04:40:39;;;;;;;8.68;2.78;;;11.30;99.90;;;;;;5010639;28;20042;-65
2022/11/09 04:43:11;;;;;;;7.80;2.60;;;11.30;99.90;;;;;;5011302;28;20453;-64
2022/11/09 04:45:38;;;;;;;9.35;2.83;;;11.30;99.90;;;;;;5012279;28;20112;-64
2022/11/09 04:48:07;;;;;;;9.95;2.70;;;11.30;99.90;;;;;;5010322;28;20057;-64
2022/11/09 04:50:34;;;;;;;10.95;2.80;;;11.30;99.90;;;;;;5010839;28;20461;-64
2022/11/09 04:53:10;;;;;;;7.43;2.30;;;11.30;99.90;;;;;;5010494;28;20120;-64
2022/11/09 04:55:37;;;;;;;6.85;2.35;;;11.30;99.90;;;;;;5011126;28;20272;-66
2022/11/09 04:58:05;;;;;;;9.25;2.78;;;11.40;99.90;;;;;;5008769;28;20050;-65
2022/11/09 05:00:32;;;;;;;6.50;2.42;;;11.40;99.90;;;;;;5011887;28;20050;-65
2022/11/09 05:03:03;;;;;;;7.88;2.63;;;11.40;99.90;;;;;;5002194;28;20759;-65
2022/11/09 05:05:30;;;;;;;7.28;2.50;;;11.40;99.90;;;;;;5001214;28;20160;-66
2022/11/09 05:07:56;;;;;;;10.07;2.30;;;11.40;99.90;;;;;;5004419;28;20042;-64
2022/11/09 05:10:25;;;;;;;9.43;2.42;;;11.40;99.90;;;;;;5002412;28;20054;-65
2022/11/09 05:12:57;;;;;;;8.52;2.17;;;11.40;99.90;;;;;;5005383;28;20156;-65
2022/11/09 05:15:24;;;;;;;8.45;2.70;;;11.40;99.90;;;;;;5005817;28;20062;-66
2022/11/09 05:17:51;;;;;;;7.22;2.60;;;11.50;99.90;;;;;;5014466;28;20046;-66
2022/11/09 05:20:18;;;;;;;11.95;2.75;;;11.50;99.90;;;;;;5007617;28;20041;-66
2022/11/09 05:25:31;;;;;;;10.32;2.83;;;11.50;99.90;;;;;;5003579;28;20137;-65
2022/11/09 05:27:57;;;;;;;8.30;2.58;;;11.50;99.90;;;;;;5009020;28;20072;-65
2022/11/09 05:30:24;;;;;;;8.13;3.00;;;11.40;99.90;;;;;;5024177;28;20045;-65
2022/11/09 05:32:51;;;;;;;5.43;3.00;;;11.40;99.90;;;;;;5008657;28;20058;-66
2022/11/09 05:35:19;;;;;;;6.50;2.40;;;11.40;99.90;;;;;;5010165;28;20125;-65
2022/11/09 05:37:48;;;;;;;9.85;3.35;;;11.50;99.90;;;;;;5007904;28;20045;-65
2022/11/09 05:40:16;;;;;;;12.00;3.38;;;11.50;99.90;;;;;;5028971;28;20457;-66
2022/11/09 05:42:44;;;;;;;10.43;2.90;;;11.50;99.90;;;;;;5012566;28;20080;-66
2022/11/09 05:45:13;;;;;;;8.52;2.95;;;11.50;99.90;;;;;;5012964;28;20099;-65
2022/11/09 05:47:40;;;;;;;7.22;2.80;;;11.60;99.90;;;;;;5013860;28;20057;-65
2022/11/09 05:50:11;;;;;;;8.80;2.42;;;11.50;99.90;;;;;;5017006;28;20045;-66
2022/11/09 05:52:38;;;;;;;10.57;2.72;;;11.60;99.90;;;;;;5015687;28;20115;-65
2022/11/09 05:55:05;;;;;;;7.20;2.42;;;11.60;99.90;;;;;;5032226;28;20049;-65
2022/11/09 05:57:32;;;;;;;10.13;2.40;;;11.50;99.90;;;;;;5033892;28;20057;-64
2022/11/09 06:00:01;;;;;;;10.77;3.45;;;11.50;99.90;;;;;;5014499;28;20092;-65
2022/11/09 06:02:31;;;;;;;7.53;2.45;;;11.50;99.90;;;;;;5014753;28;20104;-64
2022/11/09 06:04:58;;;;;;;11.15;2.80;;;11.50;99.90;;;;;;5028405;28;20414;-65
2022/11/09 06:07:25;;;;;;;6.03;2.30;;;11.40;99.90;;;;;;5008568;28;20524;-65
2022/11/09 06:09:52;;;;;;;11.48;2.70;;;11.40;99.90;;;;;;5014050;28;20053;-65
2022/11/09 06:12:18;;;;;;;14.77;2.30;;;11.40;99.90;;;;;;5009728;28;20111;-64
2022/11/09 06:14:45;;;;;;;9.68;3.08;;;11.30;99.90;;;;;;5009501;28;20049;-64
2022/11/09 06:17:13;;;;;;;6.68;2.50;;;11.30;99.90;;;;;;5003565;28;20061;-65
2022/11/09 06:19:40;;;;;;;8.02;2.60;;;11.30;99.90;;;;;;5006434;28;20422;-66
2022/11/09 06:22:07;;;;;;;12.43;3.03;;;11.20;99.90;;;;;;5004519;28;20560;-65
2022/11/09 06:24:34;;;;;;;9.52;2.50;;;11.20;99.90;;;;;;5007481;28;20116;-64
2022/11/09 06:27:01;;;;;;;9.23;2.72;;;11.20;99.90;;;;;;5010142;28;20123;-64
2022/11/09 06:29:28;;;;;;;11.57;3.30;;;11.20;99.90;;;;;;5006928;28;20073;-65
2022/11/09 06:31:55;;;;;;;17.10;3.25;;;11.30;99.90;;;;;;5012863;28;20129;-66
2022/11/09 06:34:23;;;;;;;8.50;2.72;;;11.20;99.90;;;;;;5005070;28;20441;-66
2022/11/09 06:36:50;;;;;;;14.90;2.92;;;11.20;99.90;;;;;;5008884;28;20088;-66
2022/11/09 06:39:17;;;;;;;4.43;2.10;;;11.20;99.90;;;;;;5006583;28;20497;-65
2022/11/09 06:41:44;;;;;;;10.38;3.42;;;11.20;99.90;;;;;;5004014;28;20099;-65
2022/11/09 06:44:10;;;;;;;10.27;3.08;;;11.10;99.90;;;;;;5006894;28;20112;-65
2022/11/09 06:46:37;;;;;;;6.65;2.95;;;11.10;99.90;;;;;;5005803;28;20174;-65
2022/11/09 06:49:04;;;;;;;7.40;2.42;;;11.10;99.90;;;;;;5006419;28;20407;-66
2022/11/09 06:51:32;;;;;;;6.88;2.65;;;11.10;99.90;;;;;;5009093;28;20057;-66
2022/11/09 06:53:59;;;;;;;6.82;2.47;;;11.10;99.90;;;;;;5006242;28;20050;-66
2022/11/09 06:56:26;;;;;;;9.43;2.60;;;11.10;99.90;;;;;;5006701;28;20050;-65
2022/11/09 06:58:53;;;;;;;11.18;2.88;;;11.10;99.90;;;;;;5005886;28;20072;-64
2022/11/09 07:01:28;;;;;;;7.82;2.72;;;11.10;99.90;;;;;;5007806;28;20050;-65
2022/11/09 07:03:55;;;;;;;10.80;2.72;;;11.20;99.90;;;;;;5006444;28;20054;-65
2022/11/09 07:06:23;;;;;;;11.02;2.35;;;11.20;99.90;;;;;;5007786;28;20041;-66
2022/11/09 07:08:55;;;;;;;8.85;2.75;;;11.10;99.90;;;;;;5007231;28;20046;-65
2022/11/09 07:11:22;;;;;;;9.25;2.70;;;11.10;99.90;;;;;;5006852;28;20482;-66
2022/11/09 07:13:49;;;;;;;10.02;2.40;;;11.10;99.90;;;;;;5005257;28;20469;-66
2022/11/09 07:16:17;;;;;;;8.65;2.70;;;11.10;99.90;;;;;;5005113;28;20053;-66
2022/11/09 07:18:44;;;;;;;7.38;2.60;;;11.10;99.90;;;;;;5009307;28;20451;-66
2022/11/09 07:21:12;;;;;;;9.80;2.78;;;11.20;99.90;;;;;;5004747;28;20146;-66
2022/11/09 07:23:39;;;;;;;9.65;2.80;;;11.20;99.90;;;;;;5003582;28;20433;-65
2022/11/09 07:26:08;;;;;;;11.18;2.60;;;11.30;99.90;;;;;;5006852;28;20486;-66
2022/11/09 07:28:35;;;;;;;9.15;2.40;;;11.30;99.90;;;;;;5004303;28;20103;-65
2022/11/09 07:31:02;;;;;;;10.30;3.45;;;11.30;99.90;;;;;;5011558;28;20096;-65
2022/11/09 07:33:32;;;;;;;6.55;2.30;;;11.30;99.90;;;;;;5009549;28;20108;-65
2022/11/09 07:35:59;;;;;;;7.32;2.92;;;11.30;99.90;;;;;;5011921;28;20054;-65
2022/11/09 07:38:26;;;;;;;7.43;2.20;;;11.40;99.90;;;;;;5012291;28;20065;-65
2022/11/09 07:40:53;;;;;;;10.10;2.80;;;11.40;99.90;;;;;;5011292;28;20417;-65
2022/11/09 07:43:21;;;;;;;10.30;2.67;;;11.70;99.90;;;;;;5011690;28;20062;-66
2022/11/09 07:45:48;;;;;;;6.40;2.53;;;12.40;99.90;;;;;;5011132;28;20481;-66
2022/11/09 07:48:15;;;;;;;8.77;2.60;;;13.20;99.90;;;;;;5012812;28;20054;-66
2022/11/09 07:50:42;;;;;;;8.07;2.80;;;13.90;99.90;;;;;;5007938;28;20046;-66
2022/11/09 07:53:12;;;;;;;5.85;1.95;;;14.50;99.90;;;;;;5007656;28;20049;-65
2022/11/09 07:55:39;;;;;;;5.20;1.90;;;15.00;99.90;;;;;;5010559;28;20076;-66
2022/11/09 07:58:08;;;;;;;12.02;2.30;;;15.50;99.90;;;;;;5010672;28;20046;-67
2022/11/09 08:00:38;;;;;;;11.90;2.83;;;16.00;99.90;;;;;;5011278;28;20054;-66
2022/11/09 08:03:06;;;;;;;7.07;2.17;;;16.30;99.90;;;;;;5011134;28;20058;-66
2022/11/09 08:05:33;;;;;;;11.27;2.55;;;16.70;99.90;;;;;;5011043;28;20062;-66
2022/11/09 08:08:01;;;;;;;7.43;3.20;;;17.10;99.90;;;;;;5010936;28;20088;-67
2022/11/09 08:10:30;;;;;;;7.10;2.20;;;17.50;99.90;;;;;;5008861;28;20054;-65
2022/11/09 08:13:01;;;;;;;8.65;2.85;;;17.90;99.90;;;;;;5011225;28;20545;-66
2022/11/09 08:15:29;;;;;;;7.45;1.95;;;17.90;99.90;;;;;;5012242;28;20061;-66
2022/11/09 08:18:00;;;;;;;9.07;2.30;;;18.30;99.90;;;;;;5008941;28;20524;-66
2022/11/09 08:20:28;;;;;;;9.32;2.88;;;18.60;99.90;;;;;;5010096;28;20104;-67
2022/11/09 08:22:54;;;;;;;6.78;2.40;;;18.90;99.90;;;;;;5010937;28;20049;-66
2022/11/09 08:25:21;;;;;;;8.45;2.25;;;18.90;99.90;;;;;;5009640;28;20497;-66
2022/11/09 08:27:49;;;;;;;8.82;2.10;;;18.80;99.90;;;;;;5010647;28;20084;-66
2022/11/09 08:30:17;;;;;;;7.85;2.30;;;19.00;99.90;;;;;;5011978;28;20046;-66
2022/11/09 08:32:45;;;;;;;6.82;2.10;;;19.30;99.90;;;;;;5009695;28;20061;-67
2022/11/09 08:35:16;;;;;;;7.40;2.63;;;19.40;99.90;;;;;;5011594;28;20054;-66
2022/11/09 08:37:43;;;;;;;6.43;1.90;;;19.60;99.90;;;;;;5008788;28;20057;-66
2022/11/09 08:40:11;;;;;;;6.32;2.13;;;19.80;99.90;;;;;;5011317;28;20042;-67
2022/11/09 08:42:38;;;;;;;12.63;2.15;;;19.90;99.90;;;;;;5011982;28;20045;-66
2022/11/09 08:45:06;;;;;;;7.40;2.45;;;20.00;99.90;;;;;;5011771;28;20046;-67
2022/11/09 08:47:33;;;;;;;7.65;2.10;;;20.50;99.90;;;;;;5011402;28;20061;-66
2022/11/09 08:50:00;;;;;;;9.27;2.50;;;20.40;99.90;;;;;;5010934;28;20042;-66
2022/11/09 08:52:28;;;;;;;8.35;2.58;;;20.80;99.90;;;;;;5011957;28;20077;-66
2022/11/09 08:54:55;;;;;;;8.10;2.70;;;21.20;99.90;;;;;;5008097;28;20061;-67
2022/11/09 08:57:22;;;;;;;10.18;2.10;;;21.20;99.90;;;;;;5010798;28;20058;-67
2022/11/09 08:59:49;;;;;;;7.78;2.28;;;21.30;99.90;;;;;;5010854;28;20096;-67
2022/11/09 09:02:16;;;;;;;7.25;2.47;;;21.80;99.90;;;;;;5008825;28;20108;-66
2022/11/09 09:04:43;;;;;;;6.80;2.55;;;21.80;99.90;;;;;;5011704;28;20778;-68
2022/11/09 09:07:10;;;;;;;8.05;2.00;;;21.20;99.90;;;;;;5010295;28;20053;-66
2022/11/09 09:09:39;;;;;;;10.32;3.03;;;21.40;99.90;;;;;;5010293;28;20498;-66
2022/11/09 09:12:07;;;;;;;7.85;2.13;;;21.20;99.90;;;;;;5010222;28;20050;-67
2022/11/09 09:14:35;;;;;;;7.50;2.10;;;21.50;99.90;;;;;;5011792;28;20042;-67
2022/11/09 09:17:02;;;;;;;7.72;1.88;;;21.60;99.90;;;;;;5009283;28;20417;-67
2022/11/09 09:19:29;;;;;;;9.07;2.58;;;21.30;99.90;;;;;;5012800;28;20099;-66
2022/11/09 09:21:56;;;;;;;5.30;1.83;;;21.50;99.90;;;;;;5030562;28;20121;-68
2022/11/09 09:24:23;;;;;;;6.93;1.90;;;21.60;99.90;;;;;;5016438;28;20076;-67
2022/11/09 09:26:51;;;;;;;8.75;2.10;;;21.70;99.00;;;;;;5017548;28;20049;-67
2022/11/09 09:29:18;;;;;;;7.68;2.80;;;21.40;98.80;;;;;;5017067;28;20489;-67
2022/11/09 09:31:45;;;;;;;5.63;1.90;;;21.60;99.80;;;;;;5034640;28;20037;-67
2022/11/09 09:34:12;;;;;;;5.57;1.90;;;21.40;98.40;;;;;;5015932;28;20046;-66
2022/11/09 09:36:39;;;;;;;8.45;1.95;;;21.20;98.30;;;;;;5016309;28;20095;-67
2022/11/09 09:39:06;;;;;;;8.25;2.80;;;21.50;99.30;;;;;;5017346;28;20115;-68
2022/11/09 09:41:40;;;;;;;9.00;1.90;;;21.90;98.70;;;;;;5034549;28;20107;-67
2022/11/09 09:44:23;;;;;;;7.22;1.65;;;21.80;98.60;;;;;;5016474;28;20081;-66
2022/11/09 09:46:55;;;;;;;6.97;2.17;;;21.40;97.90;;;;;;5016888;28;20045;-66
2022/11/09 09:49:27;;;;;;;7.15;2.10;;;20.90;99.20;;;;;;5016858;28;20049;-66
2022/11/09 09:51:58;;;;;;;11.63;2.33;;;20.80;99.10;;;;;;5033982;28;20049;-67
2022/11/09 09:54:30;;;;;;;10.00;2.78;;;20.20;99.50;;;;;;5016818;28;20057;-66
2022/11/09 09:57:00;;;;;;;7.80;2.28;;;20.20;99.90;;;;;;5010195;28;20103;-66
2022/11/09 09:59:37;;;;;;;5.70;2.00;;;20.50;99.90;;;;;;5013970;28;20064;-67
2022/11/09 10:02:10;;;;;;;7.80;2.13;;;20.90;99.20;;;;;;5030830;28;20038;-68
2022/11/09 10:04:41;;;;;;;8.85;2.70;;;21.10;99.90;;;;;;5032497;28;20424;-67
2022/11/09 10:07:14;;;;;;;11.35;3.25;;;20.80;99.90;;;;;;5015241;28;20053;-66
2022/11/09 10:09:57;;;;;;;9.10;2.50;;;20.50;99.90;;;;;;5016475;28;20045;-66
2022/11/09 10:12:34;;;;;;;6.90;2.72;;;20.40;99.90;;;;;;5011307;28;20053;-67
2022/11/09 10:15:12;;;;;;;9.07;3.15;;;21.00;99.90;;;;;;5016469;28;20053;-68
2022/11/09 10:17:52;;;;;;;10.98;2.35;;;20.40;99.90;;;;;;5014852;28;20148;-66
2022/11/09 10:20:31;;;;;;;10.20;2.30;;;19.50;99.90;;;;;;5015175;28;20488;-66
2022/11/09 10:23:13;;;;;;;6.30;2.50;;;19.00;99.90;;;;;;5033542;28;20312;-67
2022/11/09 10:25:44;;;;;;;9.88;2.78;;;18.70;99.90;;;;;;5032227;28;20114;-67
2022/11/09 10:28:15;;;;;;;10.43;2.90;;;18.40;99.90;;;;;;5014071;28;20053;-67
2022/11/09 10:30:44;;;;;;;5.32;2.00;;;18.90;99.90;;;;;;5016182;28;20056;-66
2022/11/09 10:33:17;;;;;;;11.88;3.53;;;18.90;99.90;;;;;;5012985;28;20053;-68
2022/11/09 10:35:47;;;;;;;10.88;3.08;;;18.90;99.90;;;;;;5014291;28;20409;-66
2022/11/09 10:38:20;;;;;;;9.20;2.85;;;18.70;99.90;;;;;;5015783;28;20050;-67
2022/11/09 10:40:53;;;;;;;6.70;3.25;;;17.80;99.90;;;;;;5015113;28;20050;-67
2022/11/09 10:43:20;;;;;;;8.32;2.92;;;17.20;99.90;;;;;;5033241;28;20425;-66
2022/11/09 10:45:59;;;;;;;7.50;3.00;;;16.60;99.90;;;;;;5015923;28;20045;-67
2022/11/09 10:48:32;;;;;;;7.28;3.33;;;16.10;99.90;;;;;;5032056;28;20128;-67
2022/11/09 10:50:59;;;;;;;10.52;3.75;;;15.70;99.90;;;;;;5015701;28;20054;-67
2022/11/09 10:53:27;;;;;;;9.35;3.03;;;15.60;99.90;;;;;;5015511;28;20081;-66
2022/11/09 10:55:55;;;;;;;10.88;3.22;;;15.30;99.90;;;;;;5014182;28;20493;-66
2022/11/09 10:58:30;;;;;;;8.95;3.35;;;15.30;99.90;;;;;;5015477;28;20072;-67
2022/11/09 11:01:04;;;;;;;8.52;3.38;;;16.00;99.90;;;;;;5014669;28;20046;-67
2022/11/09 11:03:34;;;;;;;9.70;3.00;;;16.40;99.90;;;;;;5014186;28;20061;-66
2022/11/09 11:06:03;;;;;;;7.90;2.80;;;16.20;99.90;;;;;;5015446;28;20056;-66
2022/11/09 11:08:37;;;;;;;8.55;2.92;;;15.90;99.90;;;;;;5032397;28;20049;-66
2022/11/09 11:11:23;;;;;;;7.40;2.70;;;15.60;99.90;;;;;;5032873;28;20447;-67
2022/11/09 11:13:51;;;;;;;8.95;2.75;;;15.40;99.90;;;;;;5030579;28;20049;-66
2022/11/09 11:16:28;;;;;;;11.68;3.03;;;15.10;99.90;;;;;;5032373;28;20382;-66
2022/11/09 11:18:56;;;;;;;7.65;2.70;;;14.80;99.90;;;;;;5014437;28;20076;-66
2022/11/09 11:21:25;;;;;;;14.02;3.20;;;14.70;99.90;;;;;;5012217;28;20187;-66
2022/11/09 11:24:20;;;;;;;11.27;3.20;;;14.60;99.90;;;;;;5032226;28;20121;-66
2022/11/09 11:26:52;;;;;;;10.90;3.35;;;14.50;99.90;;;;;;4995987;28;20464;-65
2022/11/09 11:29:32;;;;;;;6.38;3.33;;;14.40;99.90;;;;;;5012726;28;20045;-66
2022/11/09 11:32:00;;;;;;;9.32;3.17;;;14.40;99.90;;;;;;5003208;28;20049;-67
2022/11/09 11:34:28;;;;;;;7.82;2.95;;;14.40;99.90;;;;;;5004006;28;20141;-66
2022/11/09 11:37:07;;;;;;;9.85;3.38;;;14.40;99.90;;;;;;5025888;28;20054;-66
2022/11/09 11:39:45;;;;;;;7.97;2.90;;;14.40;99.90;;;;;;5030277;28;20080;-66
2022/11/09 11:42:30;;;;;;;8.70;3.25;;;14.30;99.90;;;;;;5026453;28;20369;-66
2022/11/09 11:45:12;;;;;;;9.05;3.50;;;14.30;99.90;;;;;;5007089;28;20100;-66
2022/11/09 11:47:51;;;;;;;8.52;3.03;;;14.80;99.90;;;;;;5024663;28;20489;-66
2022/11/09 11:50:40;;;;;;;12.10;2.90;;;14.40;99.90;;;;;;5028466;28;20443;-66
2022/11/09 11:53:30;;;;;;;10.25;3.17;;;14.50;99.90;;;;;;5027661;28;20045;-66
2022/11/09 11:56:14;;;;;;;6.20;3.25;;;14.60;99.90;;;;;;5009037;28;20103;-66
2022/11/09 11:58:52;;;;;;;7.45;3.33;;;14.60;99.90;;;;;;5024998;28;20041;-65
2022/11/09 12:01:43;;;;;;;11.00;3.85;;;15.00;99.90;;;;;;5026715;28;20531;-67
2022/11/09 12:04:27;;;;;;;11.35;3.58;;;16.30;99.90;;;;;;5007512;28;20042;-65
2022/11/09 12:07:05;;;;;;;7.70;3.15;;;16.40;99.90;;;;;;5007251;28;20107;-66
2022/11/09 12:09:58;;;;;;;9.70;3.58;;;16.00;99.90;;;;;;5007777;28;20151;-66
2022/11/09 12:12:38;;;;;;;7.22;2.90;;;15.50;99.90;;;;;;5026460;28;20452;-66
2022/11/09 12:15:21;;;;;;;9.18;3.63;;;15.20;99.90;;;;;;5007454;28;20053;-66
2022/11/09 12:17:56;;;;;;;6.55;3.00;;;14.80;99.90;;;;;;5005176;28;20054;-66
2022/11/09 12:20:29;;;;;;;13.45;3.30;;;14.60;99.90;;;;;;5005149;28;20046;-66
2022/11/09 12:23:25;;;;;;;6.72;3.33;;;14.50;99.90;;;;;;5009568;28;20049;-66
2022/11/09 12:26:04;;;;;;;9.95;3.38;;;14.30;99.90;;;;;;5028034;28;20480;-66
2022/11/09 12:29:01;;;;;;;13.32;3.58;;;14.30;99.90;;;;;;5029486;28;20049;-67
2022/11/09 12:31:38;;;;;;;8.52;3.75;;;14.20;99.90;;;;;;5014277;28;20057;-65
2022/11/09 12:34:13;;;;;;;7.90;3.78;;;14.10;99.90;;;;;;5031047;28;20052;-65
2022/11/09 12:36:46;;;;;;;7.53;4.03;;;14.10;99.90;;;;;;5014013;28;20049;-66
2022/11/09 12:39:20;;;;;;;11.65;3.58;;;14.20;99.90;;;;;;5031610;28;20076;-66
2022/11/09 12:41:49;;;;;;;10.70;3.60;;;14.30;99.90;;;;;;5014323;28;20053;-65
2022/11/09 12:44:22;;;;;;;9.25;3.38;;;14.40;99.90;;;;;;5014074;28;20045;-66
2022/11/09 12:46:52;;;;;;;13.18;4.18;;;14.40;99.90;;;;;;5013417;28;20053;-67
2022/11/09 12:49:31;;;;;;;8.63;3.40;;;14.30;99.90;;;;;;5013966;28;20127;-66
2022/11/09 12:52:00;;;;;;;8.75;3.53;;;14.40;99.90;;;;;;5031781;28;20053;-67
2022/11/09 12:54:27;;;;;;;11.27;4.50;;;14.40;99.90;;;;;;5013429;28;20480;-67
2022/11/09 12:56:57;;;;;;;13.00;4.10;;;14.30;99.90;;;;;;5015323;28;20095;-66
2022/11/09 12:59:46;;;;;;;10.02;2.90;;;14.10;99.90;;;;;;5033893;28;20057;-66
2022/11/09 13:02:27;;;;;;;12.18;4.18;;;14.00;99.90;;;;;;5017308;28;20072;-66